Time;durP1;ratioP1;P1;durP2;ratioP2;P2;SDS_P1;SDS_P2;PMS_P1;PMS_P2;Temp;Humidity;BMP_temperature;BMP_pressure;BME280_temperature;BME280_humidity;BME280_pressure;Samples;Min_cycle;Max_cycle;Signal;HPM_P1;HPM_P2
2022/01/05 00:00:50;;;;;;;1.23;1.20;;;5.00;99.90;;;;;;4991526;28;20065;-67
2022/01/05 00:03:16;;;;;;;1.20;1.20;;;5.00;99.90;;;;;;4993275;28;20037;-67
2022/01/05 00:05:43;;;;;;;1.30;1.20;;;4.90;99.90;;;;;;4999014;28;20510;-67
2022/01/05 00:08:08;;;;;;;1.15;1.15;;;4.90;99.90;;;;;;4996089;28;20068;-67
2022/01/05 00:10:34;;;;;;;1.00;1.00;;;4.80;99.90;;;;;;5002396;28;20354;-67
2022/01/05 00:13:00;;;;;;;0.98;0.98;;;4.70;99.90;;;;;;4991497;28;20034;-67
2022/01/05 00:15:25;;;;;;;1.20;1.10;;;4.70;99.90;;;;;;4992460;28;20033;-67
2022/01/05 00:17:51;;;;;;;1.20;1.15;;;4.80;99.90;;;;;;4994988;28;20113;-67
2022/01/05 00:20:17;;;;;;;0.93;0.93;;;4.70;99.90;;;;;;4995388;28;21127;-67
2022/01/05 00:22:42;;;;;;;0.80;0.80;;;4.60;99.90;;;;;;4990587;28;20109;-67
2022/01/05 00:25:08;;;;;;;1.08;1.02;;;4.60;99.90;;;;;;5000769;28;20065;-67
2022/01/05 00:27:34;;;;;;;0.80;0.80;;;4.60;99.90;;;;;;5000462;28;20044;-67
2022/01/05 00:29:59;;;;;;;0.70;0.70;;;4.50;99.90;;;;;;4999211;28;20366;-67
2022/01/05 00:32:25;;;;;;;0.90;0.90;;;4.50;99.90;;;;;;4988634;28;21035;-67
2022/01/05 00:34:52;;;;;;;1.92;0.95;;;4.60;99.90;;;;;;4998747;28;20038;-67
2022/01/05 00:37:18;;;;;;;0.80;0.80;;;4.50;99.90;;;;;;5003879;28;20045;-67
2022/01/05 00:39:44;;;;;;;0.75;0.75;;;4.50;99.90;;;;;;5002533;28;20030;-67
2022/01/05 00:42:09;;;;;;;1.38;1.27;;;4.40;99.90;;;;;;5001086;28;20030;-67
2022/01/05 00:44:35;;;;;;;0.90;0.90;;;4.50;99.90;;;;;;4990495;28;20049;-67
2022/01/05 00:47:00;;;;;;;1.00;1.00;;;4.50;99.90;;;;;;4997938;28;20033;-67
2022/01/05 00:49:26;;;;;;;0.98;0.98;;;4.50;99.90;;;;;;5002510;28;20049;-67
2022/01/05 00:51:52;;;;;;;1.00;1.00;;;4.50;99.90;;;;;;5004084;28;20081;-67
2022/01/05 00:54:17;;;;;;;1.00;1.00;;;4.50;99.90;;;;;;4998823;28;20179;-67
2022/01/05 00:56:43;;;;;;;1.20;1.20;;;4.40;99.90;;;;;;4994973;28;20040;-67
2022/01/05 00:59:09;;;;;;;1.30;1.20;;;4.50;99.90;;;;;;4994924;28;20037;-67
2022/01/05 01:01:34;;;;;;;1.30;1.30;;;4.40;99.90;;;;;;4998320;28;20418;-67
2022/01/05 01:04:00;;;;;;;1.45;1.35;;;4.50;99.90;;;;;;4996962;28;20040;-67
2022/01/05 01:06:25;;;;;;;1.58;1.48;;;4.40;99.90;;;;;;4992398;28;20923;-67
2022/01/05 01:08:51;;;;;;;1.52;1.40;;;4.40;99.90;;;;;;4991061;28;20038;-67
2022/01/05 01:11:17;;;;;;;1.40;1.30;;;4.40;99.90;;;;;;4993081;28;20476;-67
2022/01/05 01:13:43;;;;;;;2.08;1.30;;;4.40;99.90;;;;;;4989252;28;20036;-67
2022/01/05 01:16:09;;;;;;;1.50;1.40;;;4.40;99.90;;;;;;4992786;28;20057;-67
2022/01/05 01:18:35;;;;;;;1.55;1.40;;;4.40;99.90;;;;;;4993372;28;20141;-67
2022/01/05 01:21:01;;;;;;;2.13;1.75;;;4.40;99.90;;;;;;4995805;28;20038;-67
2022/01/05 01:23:27;;;;;;;1.58;1.48;;;4.40;99.90;;;;;;4993610;28;20062;-67
2022/01/05 01:25:53;;;;;;;1.65;1.55;;;4.40;99.90;;;;;;4997619;28;20030;-67
2022/01/05 01:28:20;;;;;;;1.67;1.50;;;4.40;99.90;;;;;;4991376;28;20038;-67
2022/01/05 01:30:45;;;;;;;1.80;1.50;;;4.40;99.90;;;;;;4992032;28;20068;-67
2022/01/05 01:33:11;;;;;;;1.75;1.38;;;4.40;99.90;;;;;;4989406;28;21242;-67
2022/01/05 01:35:37;;;;;;;1.40;1.30;;;4.40;99.90;;;;;;4994154;28;20040;-67
2022/01/05 01:38:03;;;;;;;1.67;1.40;;;4.40;99.90;;;;;;4989802;28;20034;-68
2022/01/05 01:40:28;;;;;;;1.50;1.40;;;4.40;99.90;;;;;;4996073;28;20149;-67
2022/01/05 01:42:54;;;;;;;1.20;1.10;;;4.40;99.90;;;;;;4995091;28;20038;-68
2022/01/05 01:45:20;;;;;;;1.30;1.20;;;4.40;99.90;;;;;;4991773;28;20169;-67
2022/01/05 01:47:46;;;;;;;1.30;1.20;;;4.40;99.90;;;;;;4996063;28;20049;-67
2022/01/05 01:50:12;;;;;;;1.02;1.02;;;4.40;99.90;;;;;;4990671;28;20489;-67
2022/01/05 01:52:38;;;;;;;1.20;1.10;;;4.40;99.90;;;;;;4992048;28;20042;-67
2022/01/05 01:55:05;;;;;;;1.20;1.13;;;4.40;99.90;;;;;;4992423;28;20037;-67
2022/01/05 01:57:35;;;;;;;1.48;1.38;;;4.40;99.90;;;;;;4993455;28;20048;-67
2022/01/05 02:00:01;;;;;;;0.90;0.90;;;4.40;99.90;;;;;;4995047;28;20103;-67
2022/01/05 02:02:26;;;;;;;1.08;1.08;;;4.40;99.90;;;;;;4990223;28;20500;-67
2022/01/05 02:04:52;;;;;;;0.95;0.77;;;4.40;99.90;;;;;;4993641;28;20049;-67
2022/01/05 02:07:18;;;;;;;0.80;0.80;;;4.40;99.90;;;;;;4994052;28;20065;-67
2022/01/05 02:09:43;;;;;;;0.93;0.93;;;4.40;99.90;;;;;;4991386;28;20757;-67
2022/01/05 02:12:10;;;;;;;0.75;0.75;;;4.40;99.90;;;;;;5005483;28;20095;-67
2022/01/05 02:14:36;;;;;;;1.00;1.00;;;4.40;99.90;;;;;;5003111;28;20063;-67
2022/01/05 02:17:08;;;;;;;0.85;0.85;;;4.40;99.90;;;;;;4996144;28;20028;-67
2022/01/05 02:19:33;;;;;;;0.80;0.80;;;4.40;99.90;;;;;;4990354;28;20038;-67
2022/01/05 02:21:59;;;;;;;0.70;0.70;;;4.40;99.90;;;;;;4991944;28;20045;-68
2022/01/05 02:24:25;;;;;;;0.80;0.80;;;4.40;99.90;;;;;;4990537;28;20056;-67
2022/01/05 02:26:50;;;;;;;0.73;0.73;;;4.40;99.90;;;;;;4996619;28;20042;-67
2022/01/05 02:29:16;;;;;;;0.73;0.73;;;4.50;99.90;;;;;;4996015;28;20079;-67
2022/01/05 02:31:42;;;;;;;0.68;0.68;;;4.40;99.90;;;;;;4994883;28;20809;-67
2022/01/05 02:34:07;;;;;;;0.70;0.70;;;4.50;99.90;;;;;;4999841;28;20030;-67
2022/01/05 02:36:33;;;;;;;0.60;0.60;;;4.50;99.90;;;;;;5006242;28;20148;-67
2022/01/05 02:38:59;;;;;;;2.05;1.45;;;4.50;99.90;;;;;;5000050;28;20026;-67
2022/01/05 02:41:25;;;;;;;0.70;0.70;;;4.50;99.90;;;;;;4994216;28;20031;-67
2022/01/05 02:43:50;;;;;;;0.50;0.50;;;4.40;99.90;;;;;;4990813;28;20042;-67
2022/01/05 02:46:22;;;;;;;0.43;0.43;;;4.40;99.90;;;;;;4998280;28;20053;-67
2022/01/05 02:48:50;;;;;;;0.52;0.52;;;4.40;99.90;;;;;;4994858;28;20042;-67
2022/01/05 02:51:16;;;;;;;0.70;0.60;;;4.40;99.90;;;;;;4995973;28;20517;-67
2022/01/05 02:53:42;;;;;;;1.58;1.10;;;4.40;99.90;;;;;;4990264;28;20392;-67
2022/01/05 02:56:08;;;;;;;0.60;0.60;;;4.40;99.90;;;;;;4999518;28;20048;-67
2022/01/05 02:58:33;;;;;;;0.70;0.70;;;4.40;99.90;;;;;;5002357;28;20026;-67
2022/01/05 03:00:59;;;;;;;0.50;0.50;;;4.40;99.90;;;;;;4997900;28;20080;-67
2022/01/05 03:03:25;;;;;;;0.40;0.40;;;4.30;99.90;;;;;;5000287;28;21030;-67
2022/01/05 03:05:50;;;;;;;0.85;0.50;;;4.30;99.90;;;;;;4993565;28;20041;-67
2022/01/05 03:08:16;;;;;;;0.75;0.75;;;4.30;99.90;;;;;;4992997;28;20049;-67
2022/01/05 03:10:42;;;;;;;0.50;0.50;;;4.30;99.90;;;;;;4994509;28;20087;-67
2022/01/05 03:13:07;;;;;;;0.50;0.50;;;4.30;99.90;;;;;;4997689;28;20046;-67
2022/01/05 03:15:37;;;;;;;0.52;0.52;;;4.30;99.90;;;;;;4994425;28;20042;-67
2022/01/05 03:18:04;;;;;;;0.40;0.40;;;4.30;99.90;;;;;;4996652;28;20149;-67
2022/01/05 03:20:30;;;;;;;0.60;0.60;;;4.20;99.90;;;;;;4999231;28;20037;-67
2022/01/05 03:22:57;;;;;;;0.45;0.45;;;4.20;99.90;;;;;;5001839;28;20053;-67
2022/01/05 03:25:23;;;;;;;0.50;0.50;;;4.20;99.90;;;;;;5000266;28;21656;-67
2022/01/05 03:27:50;;;;;;;0.50;0.50;;;4.20;99.90;;;;;;4998824;28;20030;-67
2022/01/05 03:30:22;;;;;;;0.50;0.50;;;4.20;99.90;;;;;;5010057;28;20077;-67
2022/01/05 03:35:31;;;;;;;0.50;0.50;;;4.20;99.90;;;;;;5002249;28;20741;-67
2022/01/05 03:37:58;;;;;;;0.50;0.50;;;4.20;99.90;;;;;;4999513;28;20472;-67
2022/01/05 03:40:25;;;;;;;0.40;0.40;;;4.20;99.90;;;;;;4996329;28;20030;-67
2022/01/05 03:42:51;;;;;;;0.40;0.40;;;4.10;99.90;;;;;;4999851;28;20038;-67
2022/01/05 03:45:16;;;;;;;0.40;0.40;;;4.10;99.90;;;;;;4997032;28;22364;-67
2022/01/05 03:47:42;;;;;;;0.47;0.47;;;4.10;99.90;;;;;;5005504;28;20066;-67
2022/01/05 03:50:08;;;;;;;0.45;0.45;;;4.10;99.90;;;;;;5001453;28;20198;-67
2022/01/05 03:52:34;;;;;;;0.45;0.45;;;4.10;99.90;;;;;;5000123;28;22197;-68
2022/01/05 03:55:01;;;;;;;0.50;0.50;;;4.10;99.90;;;;;;4993570;28;20108;-67
2022/01/05 03:57:27;;;;;;;0.55;0.55;;;4.10;99.90;;;;;;4991068;28;20038;-67
2022/01/05 03:59:53;;;;;;;0.88;0.88;;;4.00;99.90;;;;;;5003754;28;20469;-67
2022/01/05 04:02:19;;;;;;;0.50;0.50;;;4.00;99.90;;;;;;4998673;28;20177;-67
2022/01/05 04:04:46;;;;;;;0.50;0.50;;;4.00;99.90;;;;;;5004945;28;20068;-67
2022/01/05 04:07:11;;;;;;;0.68;0.68;;;4.10;99.90;;;;;;4995020;28;20037;-67
2022/01/05 04:09:37;;;;;;;0.50;0.50;;;4.10;99.90;;;;;;4996301;28;20050;-67
2022/01/05 04:12:03;;;;;;;0.40;0.40;;;4.10;99.90;;;;;;5006474;28;20034;-67
2022/01/05 04:14:29;;;;;;;0.60;0.60;;;4.00;99.90;;;;;;4998463;28;20038;-67
2022/01/05 04:16:54;;;;;;;0.60;0.60;;;4.00;99.90;;;;;;5002590;28;20045;-67
2022/01/05 04:19:20;;;;;;;0.50;0.50;;;4.00;99.90;;;;;;5004729;28;20064;-67
2022/01/05 04:21:46;;;;;;;0.80;0.60;;;4.00;99.90;;;;;;4995503;28;20088;-67
2022/01/05 04:24:11;;;;;;;0.40;0.40;;;4.00;99.90;;;;;;5006345;28;20026;-67
2022/01/05 04:26:37;;;;;;;0.40;0.40;;;4.00;99.90;;;;;;4998824;28;22142;-67
2022/01/05 04:29:03;;;;;;;0.60;0.60;;;4.00;99.90;;;;;;4994921;28;20448;-67
2022/01/05 04:31:28;;;;;;;0.60;0.60;;;4.00;99.90;;;;;;5005263;28;20436;-67
2022/01/05 04:33:54;;;;;;;0.70;0.70;;;4.00;99.90;;;;;;5009337;28;20034;-67
2022/01/05 04:36:19;;;;;;;0.60;0.60;;;4.00;99.90;;;;;;5000541;28;20034;-67
2022/01/05 04:38:45;;;;;;;0.77;0.77;;;4.00;99.90;;;;;;4999139;28;20030;-67
2022/01/05 04:41:10;;;;;;;0.50;0.50;;;4.00;99.90;;;;;;5007101;28;20041;-67
2022/01/05 04:43:36;;;;;;;0.60;0.60;;;3.90;99.90;;;;;;5002196;28;20034;-67
2022/01/05 04:46:02;;;;;;;1.45;0.90;;;4.00;99.90;;;;;;5002523;28;20135;-67
2022/01/05 04:48:29;;;;;;;0.60;0.60;;;4.00;99.90;;;;;;5000607;28;20191;-67
2022/01/05 04:50:54;;;;;;;0.50;0.50;;;4.00;99.90;;;;;;5001853;28;20025;-67
2022/01/05 04:53:20;;;;;;;0.50;0.50;;;4.00;99.90;;;;;;4994941;28;20033;-67
2022/01/05 04:55:46;;;;;;;0.50;0.50;;;4.00;99.90;;;;;;4996068;28;20392;-67
2022/01/05 04:58:11;;;;;;;0.50;0.50;;;4.00;99.90;;;;;;4994849;28;20038;-67
2022/01/05 05:00:37;;;;;;;0.50;0.50;;;4.00;99.90;;;;;;4995018;28;20046;-67
2022/01/05 05:03:03;;;;;;;0.50;0.50;;;4.00;99.90;;;;;;4998488;28;20040;-67
2022/01/05 05:05:29;;;;;;;0.40;0.40;;;4.00;99.90;;;;;;4999507;28;20041;-67
2022/01/05 05:07:54;;;;;;;0.40;0.40;;;4.00;99.90;;;;;;4990493;28;20405;-67
2022/01/05 05:10:20;;;;;;;0.60;0.60;;;4.00;99.90;;;;;;4987622;28;20081;-68
2022/01/05 05:12:46;;;;;;;0.60;0.60;;;4.00;99.90;;;;;;4991774;28;20048;-67
2022/01/05 05:15:11;;;;;;;0.50;0.50;;;4.00;99.90;;;;;;4992821;28;20034;-67
2022/01/05 05:17:37;;;;;;;0.40;0.40;;;4.00;99.90;;;;;;4995319;28;20534;-67
2022/01/05 05:20:03;;;;;;;0.38;0.38;;;4.00;99.90;;;;;;4995493;28;20033;-67
2022/01/05 05:22:29;;;;;;;0.40;0.40;;;3.90;99.90;;;;;;4990420;28;20037;-67
2022/01/05 05:24:55;;;;;;;0.40;0.40;;;3.90;99.90;;;;;;4986970;28;20165;-67
2022/01/05 05:27:20;;;;;;;0.40;0.40;;;3.90;99.90;;;;;;4988007;28;20455;-67
2022/01/05 05:29:46;;;;;;;0.50;0.50;;;3.90;99.90;;;;;;4988053;28;20037;-67
2022/01/05 05:32:11;;;;;;;0.50;0.50;;;3.80;99.90;;;;;;4990834;28;20401;-67
2022/01/05 05:34:37;;;;;;;0.60;0.60;;;3.80;99.90;;;;;;4990686;28;20472;-67
2022/01/05 05:37:03;;;;;;;0.40;0.40;;;3.90;99.90;;;;;;4987169;28;20042;-67
2022/01/05 05:39:28;;;;;;;0.43;0.43;;;3.80;99.90;;;;;;4990851;28;20210;-67
2022/01/05 05:41:54;;;;;;;0.40;0.40;;;3.80;99.90;;;;;;4994962;28;20034;-67
2022/01/05 05:44:20;;;;;;;0.40;0.40;;;3.80;99.90;;;;;;4996351;28;20381;-67
2022/01/05 05:46:45;;;;;;;0.50;0.50;;;3.80;99.90;;;;;;4985824;28;22058;-67
2022/01/05 05:49:11;;;;;;;0.50;0.50;;;3.80;99.90;;;;;;4997325;28;20054;-67
2022/01/05 05:51:36;;;;;;;0.40;0.40;;;3.80;99.90;;;;;;4994289;28;20037;-67
2022/01/05 05:54:03;;;;;;;0.50;0.50;;;3.80;99.90;;;;;;4992534;28;20026;-67
2022/01/05 05:56:29;;;;;;;0.65;0.65;;;3.70;99.90;;;;;;4997490;28;20034;-67
2022/01/05 05:58:55;;;;;;;0.70;0.70;;;3.70;99.90;;;;;;4994222;28;20057;-67
2022/01/05 06:01:20;;;;;;;1.40;0.80;;;3.70;99.90;;;;;;4990738;28;20056;-68
2022/01/05 06:03:46;;;;;;;0.55;0.55;;;3.70;99.90;;;;;;4995733;28;20421;-67
2022/01/05 06:06:11;;;;;;;0.52;0.52;;;3.70;99.90;;;;;;4992403;28;20113;-67
2022/01/05 06:08:39;;;;;;;0.90;0.90;;;3.80;99.90;;;;;;4993277;28;20057;-67
2022/01/05 06:11:06;;;;;;;0.90;0.60;;;3.70;99.90;;;;;;4994172;28;20488;-67
2022/01/05 06:13:32;;;;;;;0.68;0.68;;;3.70;99.90;;;;;;4998214;28;20862;-67
2022/01/05 06:15:57;;;;;;;0.77;0.77;;;3.70;99.90;;;;;;4992446;28;20137;-67
2022/01/05 06:18:23;;;;;;;0.55;0.55;;;3.80;99.90;;;;;;4993239;28;20080;-67
2022/01/05 06:20:49;;;;;;;0.60;0.60;;;3.80;99.90;;;;;;4992636;28;20088;-67
2022/01/05 06:23:14;;;;;;;0.50;0.50;;;3.80;99.90;;;;;;4983606;28;21523;-67
2022/01/05 06:25:40;;;;;;;6.45;0.70;;;3.80;99.90;;;;;;4982093;28;20587;-67
2022/01/05 06:28:10;;;;;;;0.50;0.50;;;3.80;99.90;;;;;;4986839;28;21236;-67
2022/01/05 06:30:40;;;;;;;0.60;0.60;;;3.80;99.90;;;;;;4968355;28;20993;-67
2022/01/05 06:33:06;;;;;;;0.50;0.50;;;3.80;99.90;;;;;;4987626;28;20049;-67
2022/01/05 06:35:31;;;;;;;0.70;0.70;;;3.90;99.90;;;;;;4990799;28;20030;-67
2022/01/05 06:37:57;;;;;;;1.08;0.75;;;3.80;99.90;;;;;;4997713;28;20674;-67
2022/01/05 06:40:23;;;;;;;0.50;0.50;;;3.80;99.90;;;;;;4997208;28;20087;-67
2022/01/05 06:42:49;;;;;;;0.50;0.50;;;3.90;99.90;;;;;;4991714;28;20072;-67
2022/01/05 06:45:15;;;;;;;0.50;0.50;;;3.90;99.90;;;;;;4994034;28;20160;-68
2022/01/05 06:47:40;;;;;;;0.70;0.70;;;3.90;99.90;;;;;;4992113;28;20432;-67
2022/01/05 06:50:08;;;;;;;0.60;0.60;;;3.90;99.90;;;;;;4995800;28;20045;-67
2022/01/05 06:52:34;;;;;;;0.60;0.60;;;3.90;99.90;;;;;;4995707;28;20045;-67
2022/01/05 06:55:00;;;;;;;0.60;0.60;;;3.90;99.90;;;;;;4995459;28;20092;-67
2022/01/05 06:57:25;;;;;;;0.60;0.60;;;3.90;99.90;;;;;;5001944;28;20133;-67
2022/01/05 06:59:51;;;;;;;0.63;0.63;;;3.90;99.90;;;;;;4999984;28;20053;-67
2022/01/05 07:02:16;;;;;;;1.05;0.70;;;3.90;99.90;;;;;;5000525;28;20085;-67
2022/01/05 07:04:42;;;;;;;0.57;0.57;;;3.90;99.90;;;;;;5002401;28;20030;-67
2022/01/05 07:07:08;;;;;;;0.80;0.80;;;3.90;99.90;;;;;;5001990;28;22566;-67
2022/01/05 07:09:34;;;;;;;0.60;0.60;;;3.90;99.90;;;;;;5000016;28;20840;-67
2022/01/05 07:11:59;;;;;;;0.70;0.70;;;3.90;99.90;;;;;;5003971;28;20490;-67
2022/01/05 07:14:25;;;;;;;0.70;0.70;;;3.90;99.90;;;;;;4998511;28;20040;-67
2022/01/05 07:16:51;;;;;;;0.70;0.70;;;3.80;99.90;;;;;;4997452;28;20113;-68
2022/01/05 07:19:17;;;;;;;0.73;0.73;;;3.90;99.90;;;;;;5004804;28;20042;-67
2022/01/05 07:21:44;;;;;;;0.90;0.90;;;3.90;99.90;;;;;;4994709;28;20042;-67
2022/01/05 07:24:12;;;;;;;2.28;0.90;;;3.90;99.90;;;;;;4994926;28;20063;-67
2022/01/05 07:26:39;;;;;;;0.82;0.82;;;3.90;99.90;;;;;;5002689;28;20026;-67
2022/01/05 07:29:05;;;;;;;1.17;1.00;;;3.90;99.90;;;;;;4996754;28;20124;-67
2022/01/05 07:31:30;;;;;;;0.68;0.68;;;3.90;99.90;;;;;;5007736;28;20054;-67
2022/01/05 07:33:56;;;;;;;0.70;0.70;;;3.90;99.90;;;;;;5002596;28;20374;-67
2022/01/05 07:36:22;;;;;;;0.70;0.70;;;3.80;99.90;;;;;;4998928;28;20060;-67
2022/01/05 07:38:47;;;;;;;0.60;0.60;;;3.80;99.90;;;;;;5008562;28;20029;-67
2022/01/05 07:41:13;;;;;;;1.00;0.80;;;3.80;99.90;;;;;;5009187;28;20516;-67
2022/01/05 07:43:38;;;;;;;0.70;0.70;;;3.90;99.90;;;;;;4998887;28;20116;-67
2022/01/05 07:46:04;;;;;;;0.90;0.90;;;3.80;99.90;;;;;;4998130;28;20057;-67
2022/01/05 07:48:30;;;;;;;0.68;0.68;;;3.80;99.90;;;;;;4999405;28;20582;-67
2022/01/05 07:50:55;;;;;;;0.60;0.60;;;3.80;99.90;;;;;;5000184;28;20033;-67
2022/01/05 07:53:21;;;;;;;0.60;0.60;;;3.90;99.90;;;;;;4996872;28;20042;-68
2022/01/05 07:55:47;;;;;;;0.60;0.60;;;3.90;99.90;;;;;;5002355;28;20037;-67
2022/01/05 07:58:13;;;;;;;0.70;0.70;;;3.90;99.90;;;;;;5006335;28;20120;-67
2022/01/05 08:00:39;;;;;;;0.60;0.60;;;3.80;99.90;;;;;;5006522;28;20057;-67
2022/01/05 08:03:04;;;;;;;0.85;0.85;;;3.80;99.90;;;;;;5008085;28;20026;-67
2022/01/05 08:05:30;;;;;;;0.80;0.80;;;3.60;99.90;;;;;;4997746;28;20037;-67
2022/01/05 08:07:56;;;;;;;0.73;0.73;;;3.50;99.90;;;;;;4998143;28;20025;-67
2022/01/05 08:10:21;;;;;;;1.13;1.05;;;3.50;99.90;;;;;;4993753;28;20046;-67
2022/01/05 08:12:47;;;;;;;0.90;0.90;;;3.40;99.90;;;;;;4995427;28;21828;-67
2022/01/05 08:15:15;;;;;;;1.05;1.05;;;3.20;99.90;;;;;;4995811;28;20026;-67
2022/01/05 08:17:41;;;;;;;1.63;1.55;;;3.20;99.90;;;;;;5002326;28;20030;-68
2022/01/05 08:20:10;;;;;;;1.42;1.40;;;3.20;99.90;;;;;;5001116;28;20581;-67
2022/01/05 08:22:41;;;;;;;1.33;1.33;;;3.20;99.90;;;;;;5006143;28;20045;-67
2022/01/05 08:25:09;;;;;;;1.80;1.70;;;3.20;99.90;;;;;;4999909;28;20133;-67
2022/01/05 08:27:34;;;;;;;1.77;1.67;;;3.10;99.90;;;;;;4998201;28;20072;-68
2022/01/05 08:30:04;;;;;;;1.63;1.55;;;3.10;99.90;;;;;;5002104;28;20376;-68
2022/01/05 08:32:31;;;;;;;2.47;1.90;;;3.10;99.90;;;;;;4994680;28;20137;-68
2022/01/05 08:34:57;;;;;;;2.20;2.03;;;3.00;99.90;;;;;;5005551;28;20042;-68
2022/01/05 08:37:23;;;;;;;2.20;2.08;;;3.00;99.90;;;;;;5002241;28;20030;-68
2022/01/05 08:39:50;;;;;;;1.85;1.75;;;2.90;99.90;;;;;;4995225;28;20053;-67
2022/01/05 08:42:16;;;;;;;2.00;1.90;;;2.80;99.90;;;;;;5001708;28;20161;-67
2022/01/05 08:44:42;;;;;;;1.92;1.83;;;2.90;99.90;;;;;;5006182;28;20037;-67
2022/01/05 08:47:08;;;;;;;2.53;1.92;;;2.90;99.90;;;;;;4999043;28;20034;-67
2022/01/05 08:49:34;;;;;;;1.95;1.85;;;2.90;99.90;;;;;;5009082;28;20033;-67
2022/01/05 08:52:00;;;;;;;3.83;2.33;;;2.90;99.90;;;;;;5000594;28;20042;-67
2022/01/05 08:54:26;;;;;;;2.10;2.00;;;2.90;99.90;;;;;;5001287;28;20742;-67
2022/01/05 08:56:54;;;;;;;2.95;2.03;;;2.90;99.90;;;;;;5004639;28;20034;-68
2022/01/05 08:59:20;;;;;;;2.35;2.25;;;3.00;99.90;;;;;;5002123;28;20034;-67
2022/01/05 09:01:45;;;;;;;2.92;2.42;;;2.90;99.90;;;;;;4998619;28;20839;-67
2022/01/05 09:04:11;;;;;;;2.25;2.08;;;2.90;99.90;;;;;;5000107;28;20037;-67
2022/01/05 09:06:37;;;;;;;3.03;2.20;;;2.90;99.90;;;;;;4997055;28;20033;-67
2022/01/05 09:09:03;;;;;;;2.25;2.10;;;2.80;99.90;;;;;;5003236;28;20061;-67
2022/01/05 09:11:29;;;;;;;2.55;2.00;;;2.80;99.90;;;;;;5001362;28;20057;-67
2022/01/05 09:13:54;;;;;;;2.55;2.15;;;2.80;99.90;;;;;;5000992;28;20393;-67
2022/01/05 09:16:20;;;;;;;2.25;2.03;;;2.70;99.90;;;;;;5002209;28;20030;-68
2022/01/05 09:18:47;;;;;;;2.50;2.30;;;2.80;99.90;;;;;;4994333;28;20100;-68
2022/01/05 09:21:12;;;;;;;3.55;2.08;;;2.80;99.90;;;;;;4993908;28;20144;-67
2022/01/05 09:23:38;;;;;;;2.60;2.28;;;2.80;99.90;;;;;;4995647;28;20038;-67
2022/01/05 09:26:04;;;;;;;3.53;1.88;;;2.80;99.90;;;;;;5002466;28;20034;-67
2022/01/05 09:28:29;;;;;;;2.40;1.95;;;2.80;99.90;;;;;;4998794;28;20080;-67
2022/01/05 09:30:55;;;;;;;3.83;2.17;;;2.80;99.90;;;;;;4994742;28;20053;-68
2022/01/05 09:33:23;;;;;;;2.65;2.35;;;2.90;99.90;;;;;;4995498;28;20038;-67
2022/01/05 09:35:50;;;;;;;3.13;1.92;;;2.80;99.90;;;;;;4998566;28;20096;-67
2022/01/05 09:38:35;;;;;;;2.17;1.75;;;2.90;99.90;;;;;;5006629;28;20109;-67
2022/01/05 09:43:51;;;;;;;1.77;1.67;;;2.90;99.90;;;;;;4986367;28;20041;-68
2022/01/05 09:46:52;;;;;;;5.03;1.70;;;2.90;99.90;;;;;;4988526;28;20136;-67
2022/01/05 09:49:30;;;;;;;2.70;1.70;;;2.90;99.90;;;;;;4967026;28;20417;-67
2022/01/05 09:52:02;;;;;;;3.10;2.10;;;2.90;99.90;;;;;;4993483;28;21559;-67
2022/01/05 09:54:28;;;;;;;4.03;2.03;;;2.90;99.90;;;;;;4993028;28;20076;-67
2022/01/05 09:56:54;;;;;;;2.03;1.70;;;2.90;99.90;;;;;;4995718;28;20103;-67
2022/01/05 09:59:20;;;;;;;2.00;1.80;;;2.80;99.90;;;;;;5005378;28;20037;-67
2022/01/05 10:01:46;;;;;;;2.70;1.88;;;2.80;99.90;;;;;;5005482;28;20135;-67
2022/01/05 10:04:13;;;;;;;1.60;1.40;;;2.80;99.90;;;;;;5005847;28;20066;-67
2022/01/05 10:06:40;;;;;;;2.13;1.50;;;2.80;99.90;;;;;;5004123;28;20784;-67
2022/01/05 10:09:06;;;;;;;2.10;1.90;;;2.80;99.90;;;;;;5007367;28;20296;-67
2022/01/05 10:11:32;;;;;;;2.88;2.60;;;2.80;99.90;;;;;;5005923;28;20388;-67
2022/01/05 10:13:57;;;;;;;1.88;1.77;;;2.80;99.90;;;;;;5005632;28;20042;-67
2022/01/05 10:16:24;;;;;;;2.70;1.50;;;2.80;99.90;;;;;;4999413;28;20112;-67
2022/01/05 10:18:50;;;;;;;1.00;1.00;;;2.80;99.90;;;;;;4997270;28;20034;-67
2022/01/05 10:21:16;;;;;;;2.17;1.27;;;2.70;99.90;;;;;;5006612;28;20041;-67
2022/01/05 10:23:48;;;;;;;1.52;1.20;;;2.60;99.90;;;;;;5007220;28;20034;-67
2022/01/05 10:26:28;;;;;;;1.60;1.50;;;2.60;99.90;;;;;;5004233;28;20033;-67
2022/01/05 10:28:56;;;;;;;1.90;1.48;;;2.50;99.90;;;;;;5007566;28;20420;-67
2022/01/05 10:31:34;;;;;;;1.85;1.48;;;2.30;99.90;;;;;;5006698;28;20397;-67
2022/01/05 10:34:13;;;;;;;2.53;1.45;;;2.40;99.90;;;;;;5003828;28;20041;-67
2022/01/05 10:36:44;;;;;;;1.92;1.20;;;2.40;99.90;;;;;;4997924;28;20033;-67
2022/01/05 10:39:10;;;;;;;1.33;1.23;;;2.40;99.90;;;;;;5005357;28;20841;-67
2022/01/05 10:41:38;;;;;;;1.38;1.38;;;2.40;99.90;;;;;;4996789;28;20042;-67
2022/01/05 10:44:16;;;;;;;;;;;2.40;99.90;;;;;;5002352;28;20037;-68
2022/01/05 10:46:47;;;;;;;2.75;1.60;;;2.50;99.90;;;;;;5000657;28;20020;-68
2022/01/05 10:49:31;;;;;;;1.80;1.65;;;2.50;99.90;;;;;;4996703;28;20597;-67
2022/01/05 10:52:02;;;;;;;1.90;1.80;;;2.40;99.90;;;;;;4997602;28;20396;-68
2022/01/05 10:54:32;;;;;;;1.55;1.45;;;2.40;99.90;;;;;;5001586;28;20151;-68
2022/01/05 10:57:09;;;;;;;1.13;1.13;;;2.50;99.90;;;;;;5004029;28;20030;-67
2022/01/05 10:59:42;;;;;;;1.50;1.40;;;2.40;99.90;;;;;;5003775;28;20052;-68
2022/01/05 11:02:27;;;;;;;2.33;1.75;;;2.40;99.90;;;;;;4996792;28;20054;-68
2022/01/05 11:04:58;;;;;;;2.22;1.75;;;2.40;99.90;;;;;;4994195;28;20033;-68
2022/01/05 11:07:26;;;;;;;3.00;1.33;;;2.40;99.90;;;;;;4999017;28;20041;-68
2022/01/05 11:10:01;;;;;;;1.27;1.25;;;2.40;99.90;;;;;;5000013;28;20042;-68
2022/01/05 11:12:35;;;;;;;1.50;1.40;;;2.40;99.90;;;;;;5000854;28;20044;-68
2022/01/05 11:15:28;;;;;;;2.50;1.40;;;2.40;99.90;;;;;;4998981;28;20042;-68
2022/01/05 11:18:11;;;;;;;1.60;1.50;;;2.50;99.90;;;;;;5002340;28;20030;-68
2022/01/05 11:21:01;;;;;;;1.73;1.60;;;2.40;99.90;;;;;;5004645;28;20072;-68
2022/01/05 11:23:28;;;;;;;1.92;1.33;;;2.50;99.90;;;;;;4996535;28;20030;-67
2022/01/05 11:25:55;;;;;;;3.38;2.10;;;2.40;99.90;;;;;;5000329;28;20030;-67
2022/01/05 11:28:23;;;;;;;1.42;1.38;;;2.40;99.90;;;;;;5010623;28;20092;-68
2022/01/05 11:30:51;;;;;;;2.43;2.00;;;2.40;99.90;;;;;;4998997;28;20393;-67
2022/01/05 11:33:18;;;;;;;1.50;1.40;;;2.40;99.90;;;;;;5002019;28;20121;-67
2022/01/05 11:35:43;;;;;;;2.22;1.60;;;2.40;99.90;;;;;;4997889;28;20137;-67
2022/01/05 11:38:11;;;;;;;2.20;1.83;;;2.30;99.90;;;;;;5007396;28;20168;-67
2022/01/05 11:40:39;;;;;;;2.97;1.58;;;2.30;99.90;;;;;;5006254;28;20026;-67
2022/01/05 11:43:08;;;;;;;1.50;1.40;;;2.30;99.90;;;;;;5009374;28;20033;-67
2022/01/05 11:45:47;;;;;;;1.67;1.58;;;2.30;99.90;;;;;;5001857;28;20038;-67
2022/01/05 11:48:28;;;;;;;1.63;1.27;;;2.30;99.90;;;;;;5005344;28;20614;-67
2022/01/05 11:51:12;;;;;;;1.58;1.40;;;2.30;99.90;;;;;;5008491;28;20038;-67
2022/01/05 11:53:44;;;;;;;5.00;1.60;;;2.20;99.90;;;;;;5008604;28;20064;-67
2022/01/05 11:56:20;;;;;;;2.45;1.20;;;2.20;99.90;;;;;;5008302;28;20057;-68
2022/01/05 11:58:53;;;;;;;1.58;1.42;;;2.20;99.90;;;;;;5006176;28;20018;-67
2022/01/05 12:01:21;;;;;;;1.35;1.20;;;2.20;99.90;;;;;;5007702;28;20112;-67
2022/01/05 12:03:50;;;;;;;3.13;1.20;;;2.20;99.90;;;;;;5009341;28;20041;-67
2022/01/05 12:06:17;;;;;;;1.50;1.40;;;2.10;98.50;;;;;;5003683;28;20033;-67
2022/01/05 12:08:51;;;;;;;8.73;1.55;;;2.10;99.90;;;;;;5009631;28;20057;-67
2022/01/05 12:11:34;;;;;;;1.55;1.45;;;2.10;99.90;;;;;;5014220;28;20048;-67
2022/01/05 12:14:03;;;;;;;1.75;1.20;;;2.20;99.90;;;;;;5005373;28;20057;-67
2022/01/05 12:16:29;;;;;;;4.25;1.42;;;2.30;99.90;;;;;;5006163;28;20041;-67
2022/01/05 12:19:09;;;;;;;1.13;1.13;;;2.30;99.90;;;;;;5002236;28;20037;-68
2022/01/05 12:21:47;;;;;;;2.13;1.30;;;2.40;99.90;;;;;;5003449;28;20069;-67
2022/01/05 12:24:14;;;;;;;3.65;1.70;;;2.40;99.90;;;;;;5004472;28;20057;-67
2022/01/05 12:26:40;;;;;;;1.55;1.45;;;2.40;99.90;;;;;;5003926;28;20034;-67
2022/01/05 12:29:06;;;;;;;3.53;1.38;;;2.30;99.90;;;;;;5009132;28;20030;-67
2022/01/05 12:31:50;;;;;;;3.78;1.23;;;2.40;99.90;;;;;;5009320;28;20056;-67
2022/01/05 12:34:56;;;;;;;3.97;1.70;;;2.40;99.90;;;;;;5005190;28;20030;-67
2022/01/05 12:37:57;;;;;;;2.80;1.30;;;2.30;99.90;;;;;;5002492;28;20034;-67
2022/01/05 12:40:45;;;;;;;2.35;1.17;;;2.30;99.90;;;;;;5004783;28;20366;-67
2022/01/05 12:43:12;;;;;;;2.83;1.88;;;2.30;99.90;;;;;;5007826;28;20096;-67
2022/01/05 12:46:31;;;;;;;3.13;1.30;;;2.30;99.90;;;;;;5002424;28;20065;-67
2022/01/05 12:48:58;;;;;;;1.20;1.15;;;2.30;99.90;;;;;;4942052;28;20566;-67
2022/01/05 12:51:35;;;;;;;2.72;1.25;;;2.40;99.90;;;;;;4938472;28;20055;-67
2022/01/05 12:54:20;;;;;;;1.02;1.02;;;2.50;99.90;;;;;;4978420;28;20053;-67
2022/01/05 12:56:55;;;;;;;1.85;1.65;;;2.50;99.90;;;;;;5006686;28;20526;-67
2022/01/05 12:59:29;;;;;;;2.50;1.55;;;2.40;99.90;;;;;;5008821;28;20172;-67
2022/01/05 13:01:57;;;;;;;2.92;1.10;;;2.50;99.90;;;;;;5005767;28;20053;-67
2022/01/05 13:04:25;;;;;;;1.95;1.50;;;2.50;99.90;;;;;;5008349;28;20431;-67
2022/01/05 13:06:53;;;;;;;1.83;1.45;;;2.50;97.60;;;;;;5003102;28;20048;-67